sensor_id;sensor_type;location;lat;lon;timestamp;P1;durP1;ratioP1;P2;durP2;ratioP2
16391;SDS011;8305;-33.882;151.134;2023-07-13T00:00:47;4.65;;;2.90;;
16391;SDS011;8305;-33.882;151.134;2023-07-13T00:03:19;4.47;;;2.60;;
16391;SDS011;8305;-33.882;151.134;2023-07-13T00:05:57;3.70;;;2.38;;
16391;SDS011;8305;-33.882;151.134;2023-07-13T00:08:30;4.32;;;2.72;;
16391;SDS011;8305;-33.882;151.134;2023-07-13T00:11:01;3.30;;;2.13;;
16391;SDS011;8305;-33.882;151.134;2023-07-13T00:13:33;5.13;;;2.38;;
16391;SDS011;8305;-33.882;151.134;2023-07-13T00:16:04;3.58;;;2.08;;
16391;SDS011;8305;-33.882;151.134;2023-07-13T00:18:37;3.45;;;2.00;;
16391;SDS011;8305;-33.882;151.134;2023-07-13T00:21:08;3.53;;;1.98;;
16391;SDS011;8305;-33.882;151.134;2023-07-13T00:23:40;3.92;;;1.90;;
16391;SDS011;8305;-33.882;151.134;2023-07-13T00:26:11;4.00;;;1.90;;
16391;SDS011;8305;-33.882;151.134;2023-07-13T00:28:43;4.10;;;2.33;;
16391;SDS011;8305;-33.882;151.134;2023-07-13T00:31:14;3.65;;;1.92;;
16391;SDS011;8305;-33.882;151.134;2023-07-13T00:33:47;4.10;;;1.90;;
16391;SDS011;8305;-33.882;151.134;2023-07-13T00:36:19;3.40;;;1.95;;
16391;SDS011;8305;-33.882;151.134;2023-07-13T00:38:50;4.07;;;2.40;;
16391;SDS011;8305;-33.882;151.134;2023-07-13T00:41:21;3.85;;;1.80;;
16391;SDS011;8305;-33.882;151.134;2023-07-13T00:43:52;3.58;;;1.88;;
16391;SDS011;8305;-33.882;151.134;2023-07-13T00:46:24;5.43;;;2.00;;
16391;SDS011;8305;-33.882;151.134;2023-07-13T00:48:59;4.00;;;1.90;;
16391;SDS011;8305;-33.882;151.134;2023-07-13T00:51:34;3.95;;;1.98;;
16391;SDS011;8305;-33.882;151.134;2023-07-13T00:54:09;3.63;;;1.98;;
16391;SDS011;8305;-33.882;151.134;2023-07-13T00:56:43;3.20;;;1.73;;
16391;SDS011;8305;-33.882;151.134;2023-07-13T00:59:17;2.90;;;1.90;;
16391;SDS011;8305;-33.882;151.134;2023-07-13T01:01:49;2.85;;;1.90;;
16391;SDS011;8305;-33.882;151.134;2023-07-13T01:04:23;3.38;;;1.90;;
16391;SDS011;8305;-33.882;151.134;2023-07-13T01:06:54;2.95;;;1.90;;
16391;SDS011;8305;-33.882;151.134;2023-07-13T01:09:26;3.55;;;2.00;;
16391;SDS011;8305;-33.882;151.134;2023-07-13T01:11:57;3.67;;;1.80;;
16391;SDS011;8305;-33.882;151.134;2023-07-13T01:14:27;3.03;;;1.85;;
16391;SDS011;8305;-33.882;151.134;2023-07-13T01:16:59;3.28;;;1.58;;
16391;SDS011;8305;-33.882;151.134;2023-07-13T01:19:33;3.45;;;1.80;;
16391;SDS011;8305;-33.882;151.134;2023-07-13T01:22:10;2.70;;;1.65;;
16391;SDS011;8305;-33.882;151.134;2023-07-13T01:24:42;5.13;;;2.20;;
16391;SDS011;8305;-33.882;151.134;2023-07-13T01:27:14;5.07;;;1.70;;
16391;SDS011;8305;-33.882;151.134;2023-07-13T01:29:46;4.32;;;1.60;;
16391;SDS011;8305;-33.882;151.134;2023-07-13T01:32:18;6.88;;;1.80;;
16391;SDS011;8305;-33.882;151.134;2023-07-13T01:34:50;2.08;;;1.50;;
16391;SDS011;8305;-33.882;151.134;2023-07-13T01:37:24;2.55;;;1.70;;
16391;SDS011;8305;-33.882;151.134;2023-07-13T01:40:02;4.22;;;1.52;;
16391;SDS011;8305;-33.882;151.134;2023-07-13T01:42:34;3.67;;;1.52;;
16391;SDS011;8305;-33.882;151.134;2023-07-13T01:45:06;2.85;;;1.50;;
16391;SDS011;8305;-33.882;151.134;2023-07-13T01:47:38;1.85;;;1.30;;
16391;SDS011;8305;-33.882;151.134;2023-07-13T01:50:09;3.70;;;1.40;;
16391;SDS011;8305;-33.882;151.134;2023-07-13T01:52:42;1.92;;;1.10;;
16391;SDS011;8305;-33.882;151.134;2023-07-13T01:55:13;3.65;;;1.60;;
16391;SDS011;8305;-33.882;151.134;2023-07-13T01:57:44;4.20;;;1.52;;
16391;SDS011;8305;-33.882;151.134;2023-07-13T02:00:16;3.83;;;1.30;;
16391;SDS011;8305;-33.882;151.134;2023-07-13T02:02:47;1.90;;;1.40;;
16391;SDS011;8305;-33.882;151.134;2023-07-13T02:05:18;2.90;;;1.38;;
16391;SDS011;8305;-33.882;151.134;2023-07-13T02:07:51;1.75;;;1.30;;
16391;SDS011;8305;-33.882;151.134;2023-07-13T02:10:22;4.03;;;1.55;;
16391;SDS011;8305;-33.882;151.134;2023-07-13T02:12:54;1.90;;;1.30;;
16391;SDS011;8305;-33.882;151.134;2023-07-13T02:15:25;2.60;;;1.60;;
16391;SDS011;8305;-33.882;151.134;2023-07-13T02:17:57;3.13;;;1.42;;
16391;SDS011;8305;-33.882;151.134;2023-07-13T02:20:28;3.40;;;1.60;;
16391;SDS011;8305;-33.882;151.134;2023-07-13T02:23:02;2.83;;;1.83;;
16391;SDS011;8305;-33.882;151.134;2023-07-13T02:25:33;4.75;;;1.55;;
16391;SDS011;8305;-33.882;151.134;2023-07-13T02:28:04;2.80;;;1.75;;
16391;SDS011;8305;-33.882;151.134;2023-07-13T02:30:35;2.58;;;1.30;;
16391;SDS011;8305;-33.882;151.134;2023-07-13T02:33:07;3.22;;;1.35;;
16391;SDS011;8305;-33.882;151.134;2023-07-13T02:35:38;2.05;;;1.58;;
16391;SDS011;8305;-33.882;151.134;2023-07-13T02:38:12;2.58;;;1.63;;
16391;SDS011;8305;-33.882;151.134;2023-07-13T02:40:43;4.00;;;1.83;;
16391;SDS011;8305;-33.882;151.134;2023-07-13T02:43:15;3.67;;;1.40;;
16391;SDS011;8305;-33.882;151.134;2023-07-13T02:45:46;3.20;;;1.95;;
16391;SDS011;8305;-33.882;151.134;2023-07-13T02:48:17;3.00;;;1.40;;
16391;SDS011;8305;-33.882;151.134;2023-07-13T02:50:48;2.72;;;1.50;;
16391;SDS011;8305;-33.882;151.134;2023-07-13T02:53:21;1.75;;;1.40;;
16391;SDS011;8305;-33.882;151.134;2023-07-13T02:55:53;3.47;;;1.42;;
16391;SDS011;8305;-33.882;151.134;2023-07-13T02:58:24;3.03;;;1.60;;
16391;SDS011;8305;-33.882;151.134;2023-07-13T03:00:55;3.17;;;1.48;;
16391;SDS011;8305;-33.882;151.134;2023-07-13T03:03:27;2.95;;;1.70;;
16391;SDS011;8305;-33.882;151.134;2023-07-13T03:06:01;2.60;;;1.48;;
16391;SDS011;8305;-33.882;151.134;2023-07-13T03:08:36;1.92;;;1.30;;
16391;SDS011;8305;-33.882;151.134;2023-07-13T03:11:11;4.40;;;1.63;;
16391;SDS011;8305;-33.882;151.134;2023-07-13T03:13:44;2.47;;;1.45;;
16391;SDS011;8305;-33.882;151.134;2023-07-13T03:16:15;4.13;;;1.90;;
16391;SDS011;8305;-33.882;151.134;2023-07-13T03:18:46;3.85;;;1.70;;
16391;SDS011;8305;-33.882;151.134;2023-07-13T03:21:19;4.90;;;1.77;;
16391;SDS011;8305;-33.882;151.134;2023-07-13T03:23:52;3.15;;;1.40;;
16391;SDS011;8305;-33.882;151.134;2023-07-13T03:26:23;3.03;;;1.50;;
16391;SDS011;8305;-33.882;151.134;2023-07-13T03:28:54;2.00;;;1.40;;
16391;SDS011;8305;-33.882;151.134;2023-07-13T03:31:25;2.63;;;1.50;;
16391;SDS011;8305;-33.882;151.134;2023-07-13T03:33:57;4.05;;;1.45;;
16391;SDS011;8305;-33.882;151.134;2023-07-13T03:36:29;2.63;;;1.60;;
16391;SDS011;8305;-33.882;151.134;2023-07-13T03:39:03;4.22;;;1.40;;
16391;SDS011;8305;-33.882;151.134;2023-07-13T03:41:34;4.82;;;1.77;;
16391;SDS011;8305;-33.882;151.134;2023-07-13T03:44:06;4.53;;;2.15;;
16391;SDS011;8305;-33.882;151.134;2023-07-13T03:46:37;4.55;;;1.90;;
16391;SDS011;8305;-33.882;151.134;2023-07-13T03:49:08;4.05;;;1.60;;
16391;SDS011;8305;-33.882;151.134;2023-07-13T03:51:39;7.07;;;2.47;;
16391;SDS011;8305;-33.882;151.134;2023-07-13T03:54:12;3.75;;;1.40;;
16391;SDS011;8305;-33.882;151.134;2023-07-13T03:56:43;4.30;;;1.83;;
16391;SDS011;8305;-33.882;151.134;2023-07-13T03:59:14;3.15;;;1.60;;
16391;SDS011;8305;-33.882;151.134;2023-07-13T04:01:45;6.13;;;1.77;;
16391;SDS011;8305;-33.882;151.134;2023-07-13T04:04:17;3.78;;;1.45;;
16391;SDS011;8305;-33.882;151.134;2023-07-13T04:06:48;4.20;;;1.42;;
16391;SDS011;8305;-33.882;151.134;2023-07-13T04:09:22;4.80;;;1.33;;
16391;SDS011;8305;-33.882;151.134;2023-07-13T04:11:53;5.40;;;1.33;;
16391;SDS011;8305;-33.882;151.134;2023-07-13T04:14:24;4.10;;;1.50;;
16391;SDS011;8305;-33.882;151.134;2023-07-13T04:16:55;3.72;;;1.40;;
16391;SDS011;8305;-33.882;151.134;2023-07-13T04:19:26;1.90;;;1.20;;
16391;SDS011;8305;-33.882;151.134;2023-07-13T04:21:57;5.43;;;1.70;;
16391;SDS011;8305;-33.882;151.134;2023-07-13T04:24:31;4.88;;;1.60;;
16391;SDS011;8305;-33.882;151.134;2023-07-13T04:27:02;5.30;;;1.77;;
16391;SDS011;8305;-33.882;151.134;2023-07-13T04:29:33;3.28;;;1.42;;
16391;SDS011;8305;-33.882;151.134;2023-07-13T04:32:05;6.88;;;1.38;;
16391;SDS011;8305;-33.882;151.134;2023-07-13T04:34:36;4.25;;;1.30;;
16391;SDS011;8305;-33.882;151.134;2023-07-13T04:37:07;3.15;;;1.30;;
16391;SDS011;8305;-33.882;151.134;2023-07-13T04:39:40;3.10;;;1.23;;
16391;SDS011;8305;-33.882;151.134;2023-07-13T04:42:11;4.75;;;1.75;;
16391;SDS011;8305;-33.882;151.134;2023-07-13T04:44:46;3.60;;;1.10;;
16391;SDS011;8305;-33.882;151.134;2023-07-13T04:47:18;2.72;;;1.30;;
16391;SDS011;8305;-33.882;151.134;2023-07-13T04:49:49;1.67;;;1.00;;
16391;SDS011;8305;-33.882;151.134;2023-07-13T04:52:20;3.95;;;1.45;;
16391;SDS011;8305;-33.882;151.134;2023-07-13T04:54:53;3.25;;;1.27;;
16391;SDS011;8305;-33.882;151.134;2023-07-13T04:57:24;2.47;;;1.10;;
16391;SDS011;8305;-33.882;151.134;2023-07-13T04:59:55;1.92;;;1.10;;
16391;SDS011;8305;-33.882;151.134;2023-07-13T05:02:27;3.95;;;1.00;;
16391;SDS011;8305;-33.882;151.134;2023-07-13T05:04:59;4.05;;;1.33;;
16391;SDS011;8305;-33.882;151.134;2023-07-13T05:07:30;2.05;;;1.10;;
16391;SDS011;8305;-33.882;151.134;2023-07-13T05:10:03;1.88;;;1.08;;
16391;SDS011;8305;-33.882;151.134;2023-07-13T05:12:35;1.45;;;1.00;;
16391;SDS011;8305;-33.882;151.134;2023-07-13T05:15:06;1.95;;;0.93;;
16391;SDS011;8305;-33.882;151.134;2023-07-13T05:17:38;3.35;;;1.20;;
16391;SDS011;8305;-33.882;151.134;2023-07-13T05:20:09;3.97;;;1.30;;
16391;SDS011;8305;-33.882;151.134;2023-07-13T05:22:40;3.13;;;1.05;;
16391;SDS011;8305;-33.882;151.134;2023-07-13T05:25:15;1.85;;;1.10;;
16391;SDS011;8305;-33.882;151.134;2023-07-13T05:27:46;2.25;;;0.90;;
16391;SDS011;8305;-33.882;151.134;2023-07-13T05:30:17;4.40;;;1.00;;
16391;SDS011;8305;-33.882;151.134;2023-07-13T05:32:48;1.75;;;0.90;;
16391;SDS011;8305;-33.882;151.134;2023-07-13T05:35:19;2.47;;;1.10;;
16391;SDS011;8305;-33.882;151.134;2023-07-13T05:37:50;2.45;;;1.00;;
16391;SDS011;8305;-33.882;151.134;2023-07-13T05:40:23;2.08;;;1.10;;
16391;SDS011;8305;-33.882;151.134;2023-07-13T05:42:54;1.80;;;0.95;;
16391;SDS011;8305;-33.882;151.134;2023-07-13T05:45:26;1.42;;;1.00;;
16391;SDS011;8305;-33.882;151.134;2023-07-13T05:47:57;2.55;;;1.08;;
16391;SDS011;8305;-33.882;151.134;2023-07-13T05:50:28;2.22;;;0.80;;
16391;SDS011;8305;-33.882;151.134;2023-07-13T05:53:00;1.92;;;1.00;;
16391;SDS011;8305;-33.882;151.134;2023-07-13T05:55:33;3.15;;;0.88;;
16391;SDS011;8305;-33.882;151.134;2023-07-13T05:58:04;1.35;;;1.00;;
16391;SDS011;8305;-33.882;151.134;2023-07-13T06:00:35;3.25;;;0.93;;
16391;SDS011;8305;-33.882;151.134;2023-07-13T06:03:06;1.02;;;0.70;;
16391;SDS011;8305;-33.882;151.134;2023-07-13T06:05:37;1.83;;;0.90;;
16391;SDS011;8305;-33.882;151.134;2023-07-13T06:08:09;2.47;;;0.80;;
16391;SDS011;8305;-33.882;151.134;2023-07-13T06:10:42;1.20;;;0.90;;
16391;SDS011;8305;-33.882;151.134;2023-07-13T06:13:13;1.00;;;0.85;;
16391;SDS011;8305;-33.882;151.134;2023-07-13T06:15:48;1.90;;;0.80;;
16391;SDS011;8305;-33.882;151.134;2023-07-13T06:18:19;1.70;;;0.93;;
16391;SDS011;8305;-33.882;151.134;2023-07-13T06:20:50;1.23;;;0.80;;
16391;SDS011;8305;-33.882;151.134;2023-07-13T06:23:21;2.70;;;1.10;;
16391;SDS011;8305;-33.882;151.134;2023-07-13T06:25:54;2.58;;;1.15;;
16391;SDS011;8305;-33.882;151.134;2023-07-13T06:28:25;2.22;;;1.30;;
16391;SDS011;8305;-33.882;151.134;2023-07-13T06:30:56;2.55;;;1.50;;
16391;SDS011;8305;-33.882;151.134;2023-07-13T06:33:27;2.70;;;1.50;;
16391;SDS011;8305;-33.882;151.134;2023-07-13T06:35:58;3.60;;;1.50;;
16391;SDS011;8305;-33.882;151.134;2023-07-13T06:38:30;2.75;;;1.60;;
16391;SDS011;8305;-33.882;151.134;2023-07-13T06:41:03;2.80;;;1.63;;
16391;SDS011;8305;-33.882;151.134;2023-07-13T06:43:34;3.15;;;1.70;;
16391;SDS011;8305;-33.882;151.134;2023-07-13T06:46:06;3.83;;;1.80;;
16391;SDS011;8305;-33.882;151.134;2023-07-13T06:48:37;4.40;;;2.00;;
16391;SDS011;8305;-33.882;151.134;2023-07-13T06:51:08;5.88;;;2.00;;
16391;SDS011;8305;-33.882;151.134;2023-07-13T06:53:39;10.80;;;3.15;;
16391;SDS011;8305;-33.882;151.134;2023-07-13T06:56:13;11.63;;;3.15;;
16391;SDS011;8305;-33.882;151.134;2023-07-13T06:58:44;11.18;;;2.90;;
16391;SDS011;8305;-33.882;151.134;2023-07-13T07:01:15;8.65;;;2.45;;
16391;SDS011;8305;-33.882;151.134;2023-07-13T07:03:46;5.30;;;2.38;;
16391;SDS011;8305;-33.882;151.134;2023-07-13T07:06:17;7.35;;;2.65;;
16391;SDS011;8305;-33.882;151.134;2023-07-13T07:08:50;7.60;;;2.80;;
16391;SDS011;8305;-33.882;151.134;2023-07-13T07:11:24;5.40;;;2.53;;
16391;SDS011;8305;-33.882;151.134;2023-07-13T07:13:55;3.78;;;2.63;;
16391;SDS011;8305;-33.882;151.134;2023-07-13T07:16:26;5.00;;;2.80;;
16391;SDS011;8305;-33.882;151.134;2023-07-13T07:18:57;5.35;;;2.90;;
16391;SDS011;8305;-33.882;151.134;2023-07-13T07:21:28;3.67;;;2.67;;
16391;SDS011;8305;-33.882;151.134;2023-07-13T07:23:59;6.82;;;2.70;;
16391;SDS011;8305;-33.882;151.134;2023-07-13T07:26:32;4.03;;;2.20;;
16391;SDS011;8305;-33.882;151.134;2023-07-13T07:29:04;5.40;;;2.10;;
16391;SDS011;8305;-33.882;151.134;2023-07-13T07:31:35;5.35;;;1.73;;
16391;SDS011;8305;-33.882;151.134;2023-07-13T07:34:06;5.43;;;2.30;;
16391;SDS011;8305;-33.882;151.134;2023-07-13T07:36:37;1.73;;;1.63;;
16391;SDS011;8305;-33.882;151.134;2023-07-13T07:39:08;3.83;;;1.95;;
16391;SDS011;8305;-33.882;151.134;2023-07-13T07:41:42;4.70;;;2.30;;
16391;SDS011;8305;-33.882;151.134;2023-07-13T07:44:13;7.30;;;2.15;;
16391;SDS011;8305;-33.882;151.134;2023-07-13T07:46:44;6.60;;;2.33;;
16391;SDS011;8305;-33.882;151.134;2023-07-13T07:49:15;4.65;;;2.50;;
16391;SDS011;8305;-33.882;151.134;2023-07-13T07:51:46;5.57;;;2.25;;
16391;SDS011;8305;-33.882;151.134;2023-07-13T07:54:17;3.47;;;2.20;;
16391;SDS011;8305;-33.882;151.134;2023-07-13T07:56:50;5.38;;;2.20;;
16391;SDS011;8305;-33.882;151.134;2023-07-13T07:59:22;4.88;;;2.35;;
16391;SDS011;8305;-33.882;151.134;2023-07-13T08:01:53;3.88;;;2.10;;
16391;SDS011;8305;-33.882;151.134;2023-07-13T08:04:24;7.13;;;2.58;;
16391;SDS011;8305;-33.882;151.134;2023-07-13T08:06:55;6.43;;;2.95;;
16391;SDS011;8305;-33.882;151.134;2023-07-13T08:09:28;4.15;;;2.05;;
16391;SDS011;8305;-33.882;151.134;2023-07-13T08:12:02;4.57;;;1.90;;
16391;SDS011;8305;-33.882;151.134;2023-07-13T08:14:33;7.22;;;2.13;;
16391;SDS011;8305;-33.882;151.134;2023-07-13T08:17:04;5.35;;;1.85;;
16391;SDS011;8305;-33.882;151.134;2023-07-13T08:19:36;3.25;;;1.75;;
16391;SDS011;8305;-33.882;151.134;2023-07-13T08:22:07;4.90;;;2.10;;
16391;SDS011;8305;-33.882;151.134;2023-07-13T08:24:38;3.88;;;2.00;;
16391;SDS011;8305;-33.882;151.134;2023-07-13T08:27:12;4.20;;;1.92;;
16391;SDS011;8305;-33.882;151.134;2023-07-13T08:29:43;3.45;;;1.90;;
16391;SDS011;8305;-33.882;151.134;2023-07-13T08:32:17;4.25;;;1.85;;
16391;SDS011;8305;-33.882;151.134;2023-07-13T08:34:48;3.65;;;1.90;;
16391;SDS011;8305;-33.882;151.134;2023-07-13T08:37:20;3.58;;;2.30;;
16391;SDS011;8305;-33.882;151.134;2023-07-13T08:39:51;3.08;;;2.38;;
16391;SDS011;8305;-33.882;151.134;2023-07-13T08:42:26;3.03;;;2.33;;
16391;SDS011;8305;-33.882;151.134;2023-07-13T08:45:05;3.22;;;2.13;;
16391;SDS011;8305;-33.882;151.134;2023-07-13T08:47:54;2.95;;;2.20;;
16391;SDS011;8305;-33.882;151.134;2023-07-13T08:50:29;4.68;;;2.45;;
16391;SDS011;8305;-33.882;151.134;2023-07-13T08:53:08;3.65;;;2.25;;
16391;SDS011;8305;-33.882;151.134;2023-07-13T08:55:44;3.85;;;2.40;;
16391;SDS011;8305;-33.882;151.134;2023-07-13T08:58:17;3.92;;;2.40;;
16391;SDS011;8305;-33.882;151.134;2023-07-13T09:00:50;4.82;;;2.45;;
16391;SDS011;8305;-33.882;151.134;2023-07-13T09:03:29;4.03;;;2.55;;
16391;SDS011;8305;-33.882;151.134;2023-07-13T09:06:15;5.38;;;2.38;;
16391;SDS011;8305;-33.882;151.134;2023-07-13T09:08:51;4.07;;;2.20;;
16391;SDS011;8305;-33.882;151.134;2023-07-13T09:11:41;4.07;;;2.20;;
16391;SDS011;8305;-33.882;151.134;2023-07-13T09:17:12;5.25;;;2.58;;
16391;SDS011;8305;-33.882;151.134;2023-07-13T09:19:47;6.13;;;3.50;;
16391;SDS011;8305;-33.882;151.134;2023-07-13T09:22:22;4.55;;;2.70;;
16391;SDS011;8305;-33.882;151.134;2023-07-13T09:24:59;5.05;;;2.80;;
16391;SDS011;8305;-33.882;151.134;2023-07-13T09:27:35;5.47;;;3.10;;
16391;SDS011;8305;-33.882;151.134;2023-07-13T09:30:20;7.05;;;3.40;;
16391;SDS011;8305;-33.882;151.134;2023-07-13T09:32:56;7.22;;;3.33;;
16391;SDS011;8305;-33.882;151.134;2023-07-13T09:35:28;4.38;;;2.88;;
16391;SDS011;8305;-33.882;151.134;2023-07-13T09:38:02;4.20;;;2.67;;
16391;SDS011;8305;-33.882;151.134;2023-07-13T09:40:49;6.82;;;3.17;;
16391;SDS011;8305;-33.882;151.134;2023-07-13T09:43:35;5.35;;;3.58;;
16391;SDS011;8305;-33.882;151.134;2023-07-13T09:46:14;5.95;;;3.55;;
16391;SDS011;8305;-33.882;151.134;2023-07-13T09:48:50;5.65;;;3.00;;
16391;SDS011;8305;-33.882;151.134;2023-07-13T09:51:22;4.63;;;2.75;;
16391;SDS011;8305;-33.882;151.134;2023-07-13T09:53:53;5.95;;;3.15;;
16391;SDS011;8305;-33.882;151.134;2023-07-13T09:56:26;7.05;;;3.03;;
16391;SDS011;8305;-33.882;151.134;2023-07-13T09:58:58;5.40;;;3.17;;
16391;SDS011;8305;-33.882;151.134;2023-07-13T10:01:35;5.95;;;3.30;;
16391;SDS011;8305;-33.882;151.134;2023-07-13T10:04:10;6.47;;;3.42;;
16391;SDS011;8305;-33.882;151.134;2023-07-13T10:06:42;7.53;;;3.20;;
16391;SDS011;8305;-33.882;151.134;2023-07-13T10:09:15;5.22;;;3.20;;
16391;SDS011;8305;-33.882;151.134;2023-07-13T10:11:47;5.20;;;3.53;;
16391;SDS011;8305;-33.882;151.134;2023-07-13T10:14:21;5.50;;;3.28;;
16391;SDS011;8305;-33.882;151.134;2023-07-13T10:16:55;4.43;;;2.80;;
16391;SDS011;8305;-33.882;151.134;2023-07-13T10:19:29;6.47;;;3.05;;
16391;SDS011;8305;-33.882;151.134;2023-07-13T10:22:12;6.57;;;3.40;;
16391;SDS011;8305;-33.882;151.134;2023-07-13T10:24:50;4.55;;;3.10;;
16391;SDS011;8305;-33.882;151.134;2023-07-13T10:27:25;8.50;;;5.10;;
16391;SDS011;8305;-33.882;151.134;2023-07-13T10:30:04;8.38;;;4.80;;
16391;SDS011;8305;-33.882;151.134;2023-07-13T10:32:43;8.52;;;5.15;;
16391;SDS011;8305;-33.882;151.134;2023-07-13T10:35:15;8.88;;;4.50;;
16391;SDS011;8305;-33.882;151.134;2023-07-13T10:37:49;6.55;;;3.90;;
16391;SDS011;8305;-33.882;151.134;2023-07-13T10:40:25;6.80;;;4.30;;
16391;SDS011;8305;-33.882;151.134;2023-07-13T10:42:59;6.50;;;3.88;;
16391;SDS011;8305;-33.882;151.134;2023-07-13T10:45:34;8.07;;;4.20;;
16391;SDS011;8305;-33.882;151.134;2023-07-13T10:48:08;6.68;;;3.90;;
16391;SDS011;8305;-33.882;151.134;2023-07-13T10:50:47;8.07;;;3.95;;
16391;SDS011;8305;-33.882;151.134;2023-07-13T10:53:21;6.40;;;4.40;;
16391;SDS011;8305;-33.882;151.134;2023-07-13T10:56:00;7.43;;;4.40;;
16391;SDS011;8305;-33.882;151.134;2023-07-13T10:58:35;8.77;;;4.78;;
16391;SDS011;8305;-33.882;151.134;2023-07-13T11:01:08;10.30;;;5.05;;
16391;SDS011;8305;-33.882;151.134;2023-07-13T11:03:48;7.82;;;4.55;;
16391;SDS011;8305;-33.882;151.134;2023-07-13T11:06:31;9.18;;;4.65;;
16391;SDS011;8305;-33.882;151.134;2023-07-13T11:09:18;7.85;;;4.50;;
16391;SDS011;8305;-33.882;151.134;2023-07-13T11:12:00;8.88;;;4.55;;
16391;SDS011;8305;-33.882;151.134;2023-07-13T11:14:36;10.05;;;5.72;;
16391;SDS011;8305;-33.882;151.134;2023-07-13T11:25:56;10.90;;;6.13;;
16391;SDS011;8305;-33.882;151.134;2023-07-13T11:28:30;11.57;;;5.90;;
16391;SDS011;8305;-33.882;151.134;2023-07-13T11:31:03;9.05;;;6.10;;
16391;SDS011;8305;-33.882;151.134;2023-07-13T11:33:55;9.55;;;5.57;;
16391;SDS011;8305;-33.882;151.134;2023-07-13T11:36:35;10.82;;;5.60;;
16391;SDS011;8305;-33.882;151.134;2023-07-13T11:39:17;9.90;;;5.70;;
16391;SDS011;8305;-33.882;151.134;2023-07-13T11:41:50;9.48;;;5.88;;
16391;SDS011;8305;-33.882;151.134;2023-07-13T11:44:24;10.13;;;6.13;;
16391;SDS011;8305;-33.882;151.134;2023-07-13T11:46:57;12.25;;;6.78;;
16391;SDS011;8305;-33.882;151.134;2023-07-13T11:49:31;13.65;;;7.53;;
16391;SDS011;8305;-33.882;151.134;2023-07-13T11:52:12;13.10;;;7.07;;
16391;SDS011;8305;-33.882;151.134;2023-07-13T11:54:47;12.25;;;6.50;;
16391;SDS011;8305;-33.882;151.134;2023-07-13T11:57:23;12.00;;;6.60;;
16391;SDS011;8305;-33.882;151.134;2023-07-13T11:59:57;12.20;;;6.47;;
16391;SDS011;8305;-33.882;151.134;2023-07-13T12:02:32;13.95;;;6.95;;
16391;SDS011;8305;-33.882;151.134;2023-07-13T12:05:09;10.77;;;6.57;;
16391;SDS011;8305;-33.882;151.134;2023-07-13T12:07:44;14.23;;;6.40;;
16391;SDS011;8305;-33.882;151.134;2023-07-13T12:10:19;12.05;;;6.55;;
16391;SDS011;8305;-33.882;151.134;2023-07-13T12:12:52;10.25;;;6.03;;
16391;SDS011;8305;-33.882;151.134;2023-07-13T12:15:28;12.75;;;6.82;;
16391;SDS011;8305;-33.882;151.134;2023-07-13T12:18:10;14.27;;;7.68;;
16391;SDS011;8305;-33.882;151.134;2023-07-13T12:20:44;14.90;;;7.70;;
16391;SDS011;8305;-33.882;151.134;2023-07-13T12:23:20;13.25;;;7.50;;
16391;SDS011;8305;-33.882;151.134;2023-07-13T12:25:53;12.90;;;6.95;;
16391;SDS011;8305;-33.882;151.134;2023-07-13T12:28:30;11.05;;;6.63;;
16391;SDS011;8305;-33.882;151.134;2023-07-13T12:31:03;12.82;;;7.28;;
16391;SDS011;8305;-33.882;151.134;2023-07-13T12:33:35;10.48;;;6.85;;
16391;SDS011;8305;-33.882;151.134;2023-07-13T12:36:10;12.85;;;7.10;;
16391;SDS011;8305;-33.882;151.134;2023-07-13T12:38:44;12.30;;;7.20;;
16391;SDS011;8305;-33.882;151.134;2023-07-13T12:41:17;13.60;;;7.00;;
16391;SDS011;8305;-33.882;151.134;2023-07-13T12:43:49;13.65;;;7.20;;
16391;SDS011;8305;-33.882;151.134;2023-07-13T12:46:23;12.38;;;7.15;;
16391;SDS011;8305;-33.882;151.134;2023-07-13T12:48:56;13.95;;;7.22;;
16391;SDS011;8305;-33.882;151.134;2023-07-13T12:51:28;13.32;;;7.13;;
16391;SDS011;8305;-33.882;151.134;2023-07-13T12:54:06;12.00;;;6.90;;
16391;SDS011;8305;-33.882;151.134;2023-07-13T12:56:45;9.82;;;6.72;;
16391;SDS011;8305;-33.882;151.134;2023-07-13T12:59:23;13.63;;;6.68;;
16391;SDS011;8305;-33.882;151.134;2023-07-13T13:02:14;11.93;;;7.10;;
16391;SDS011;8305;-33.882;151.134;2023-07-13T13:04:56;13.30;;;6.88;;
16391;SDS011;8305;-33.882;151.134;2023-07-13T13:07:27;14.95;;;7.72;;
16391;SDS011;8305;-33.882;151.134;2023-07-13T13:10:00;15.80;;;7.03;;
16391;SDS011;8305;-33.882;151.134;2023-07-13T13:12:40;12.68;;;7.38;;
16391;SDS011;8305;-33.882;151.134;2023-07-13T13:15:11;13.27;;;6.43;;
16391;SDS011;8305;-33.882;151.134;2023-07-13T13:17:42;12.77;;;6.63;;
16391;SDS011;8305;-33.882;151.134;2023-07-13T13:20:14;10.50;;;7.05;;
16391;SDS011;8305;-33.882;151.134;2023-07-13T13:22:47;14.07;;;7.57;;
16391;SDS011;8305;-33.882;151.134;2023-07-13T13:25:20;11.30;;;6.90;;
16391;SDS011;8305;-33.882;151.134;2023-07-13T13:27:51;11.57;;;6.75;;
16391;SDS011;8305;-33.882;151.134;2023-07-13T13:30:22;12.77;;;7.13;;
16391;SDS011;8305;-33.882;151.134;2023-07-13T13:32:53;10.70;;;6.72;;
16391;SDS011;8305;-33.882;151.134;2023-07-13T13:35:25;10.23;;;7.05;;
16391;SDS011;8305;-33.882;151.134;2023-07-13T13:37:56;12.18;;;6.25;;
16391;SDS011;8305;-33.882;151.134;2023-07-13T13:40:29;10.02;;;5.97;;
16391;SDS011;8305;-33.882;151.134;2023-07-13T13:43:00;10.00;;;6.32;;
16391;SDS011;8305;-33.882;151.134;2023-07-13T13:45:31;12.48;;;6.43;;
16391;SDS011;8305;-33.882;151.134;2023-07-13T13:48:02;11.45;;;7.03;;
16391;SDS011;8305;-33.882;151.134;2023-07-13T13:50:33;12.27;;;6.90;;
16391;SDS011;8305;-33.882;151.134;2023-07-13T13:53:05;12.88;;;6.65;;
16391;SDS011;8305;-33.882;151.134;2023-07-13T13:55:39;12.70;;;6.47;;
16391;SDS011;8305;-33.882;151.134;2023-07-13T13:58:10;11.68;;;6.60;;
16391;SDS011;8305;-33.882;151.134;2023-07-13T14:00:42;13.55;;;6.13;;
16391;SDS011;8305;-33.882;151.134;2023-07-13T14:03:14;11.98;;;6.47;;
16391;SDS011;8305;-33.882;151.134;2023-07-13T14:05:46;11.35;;;6.88;;
16391;SDS011;8305;-33.882;151.134;2023-07-13T14:08:19;11.25;;;6.70;;
16391;SDS011;8305;-33.882;151.134;2023-07-13T14:10:53;11.50;;;6.28;;
16391;SDS011;8305;-33.882;151.134;2023-07-13T14:13:28;15.27;;;6.70;;
16391;SDS011;8305;-33.882;151.134;2023-07-13T14:16:09;11.43;;;6.43;;
16391;SDS011;8305;-33.882;151.134;2023-07-13T14:18:43;8.93;;;5.72;;
16391;SDS011;8305;-33.882;151.134;2023-07-13T14:21:15;11.35;;;6.10;;
16391;SDS011;8305;-33.882;151.134;2023-07-13T14:23:47;11.93;;;6.22;;
16391;SDS011;8305;-33.882;151.134;2023-07-13T14:26:23;11.95;;;6.38;;
16391;SDS011;8305;-33.882;151.134;2023-07-13T14:28:56;10.63;;;5.90;;
16391;SDS011;8305;-33.882;151.134;2023-07-13T14:31:27;10.30;;;5.50;;
16391;SDS011;8305;-33.882;151.134;2023-07-13T14:33:59;10.60;;;5.60;;
16391;SDS011;8305;-33.882;151.134;2023-07-13T14:36:31;10.40;;;5.85;;
16391;SDS011;8305;-33.882;151.134;2023-07-13T14:39:09;12.65;;;5.88;;
16391;SDS011;8305;-33.882;151.134;2023-07-13T14:41:44;8.90;;;5.25;;
16391;SDS011;8305;-33.882;151.134;2023-07-13T14:44:20;10.23;;;4.97;;
16391;SDS011;8305;-33.882;151.134;2023-07-13T14:46:55;7.88;;;4.80;;
16391;SDS011;8305;-33.882;151.134;2023-07-13T14:49:30;10.48;;;4.82;;
16391;SDS011;8305;-33.882;151.134;2023-07-13T14:52:05;8.93;;;5.18;;
16391;SDS011;8305;-33.882;151.134;2023-07-13T14:54:41;9.65;;;5.28;;
16391;SDS011;8305;-33.882;151.134;2023-07-13T14:57:14;9.32;;;5.13;;
16391;SDS011;8305;-33.882;151.134;2023-07-13T14:59:46;6.45;;;4.65;;
16391;SDS011;8305;-33.882;151.134;2023-07-13T15:02:25;7.22;;;4.72;;
16391;SDS011;8305;-33.882;151.134;2023-07-13T15:04:58;8.63;;;5.13;;